• Join FlightAware (Why Join?)
  • Login
  • US Flag 
06:50AM EST


 

Airport Tracker/Info


-or-


 

Live Flight TrackerFlight Track Log ✈ UCA3599 ✈ 09-Nov-2013 ✈ KBGM - KIAD

Flight Track Log - Related Links

Times and Time Zones

All times are in EST time to prevent confusion due to time zone crossing. See the UCA3599 flight status page for this flight to view local times or setup timezone preferences in your user account.

Time Position Orientation Groundspeed Altitude Reporting Facility
EST Latitude Longitude Course Direction KTS MPH feet Rate Location/Type
06:00AM 42.1567 -75.9375 212° Southwest 178 205 3,500  Level New York Center
06:01AM 42.1122 -75.9006 148° Southeast 183 211 4,900 1,440 Climbing New York Center
06:02AM 42.0622 -75.9050 184° South 188 216 6,500 1,500 Climbing New York Center
06:03AM 42.0189 -75.9436 214° Southwest 180 207 8,000 1,500 Climbing New York Center
06:04AM 41.8962 -76.1282 212° Southwest  Level Estimated
06:04AM 41.9694 -75.9817 210° Southwest 191 220 9,500  Level New York Center
06:05AM 41.9219 -76.0197 211° Southwest 196 226 10,600 1,080 Climbing New York Center
06:06AM 41.8744 -76.0578 211° Southwest 201 231 11,700 1,200 Climbing New York Center
06:07AM 41.8333 -76.0906 211° Southwest 206 237 13,000 1,320 Climbing New York Center
06:08AM 41.7775 -76.1306 208° Southwest 201 231 14,400 1,260 Climbing New York Center
06:09AM 41.7300 -76.1658 209° Southwest 201 231 15,600 780 Climbing New York Center
06:10AM 41.6803 -76.2061 211° Southwest 208 239 16,000 180 Climbing New York Center
06:11AM 41.6264 -76.2461 209° Southwest 233 268 16,000  Level New York Center
06:12AM 41.5658 -76.2939 211° Southwest 244 281 16,000  Level New York Center
06:13AM 41.4989 -76.3439 209° Southwest 257 296 16,000  Level New York Center
06:14AM 41.4386 -76.3886 209° Southwest 257 296 16,000  Level New York Center
06:15AM 41.3781 -76.4361 210° Southwest 257 296 16,000  Level New York Center
06:16AM 41.3239 -76.4758 209° Southwest 257 296 16,000  Level New York Center
06:17AM 41.2589 -76.5283 211° Southwest 257 296 16,000  Level New York Center
06:18AM 41.1983 -76.5728 209° Southwest 257 296 16,000  Level New York Center
06:19AM 41.1397 -76.6200 211° Southwest 257 296 16,000  Level New York Center
06:20AM 41.0792 -76.6672 210° Southwest 257 296 16,000  Level New York Center
06:21AM 41.0186 -76.7114 209° Southwest 257 296 16,000  Level New York Center
06:22AM 40.9600 -76.7558 210° Southwest 257 296 16,000  Level New York Center
06:23AM 40.9058 -76.7978 210° Southwest 257 296 16,000 -60 Level New York Center
06:24AM 40.8408 -76.8469 210° Southwest 257 296 15,900 -60 Descending New York Center
06:25AM 40.7783 -76.8878 206° Southwest 257 296 15,900  Level New York Center
06:26AM 40.7083 -76.9117 195° South 257 296 15,900  Level New York Center
06:27AM 40.6383 -76.9328 193° South 262 302 16,000  Climbing New York Center
06:28AM 40.5686 -76.9539 193° South 262 302 16,000  Level New York Center
06:29AM 40.4986 -76.9750 193° South 267 307 16,000  Level New York Center
06:30AM 40.4306 -76.9989 195° South 267 307 16,000  Level New York Center
06:31AM 40.3608 -77.0197 193° South 267 307 16,000 -360 Level New York Center
06:32AM 40.2867 -77.0403 192° South 267 307 15,300 -720 Descending New York Center
06:33AM 40.2125 -77.0636 194° South 267 307 14,600 -720 Descending New York Center
06:34AM 40.1447 -77.0847 193° South 273 314 13,900 -1,140 Descending New York Center
06:36AM 40.0000 -77.1333 194° South 275 316 11,400 -1,200 Descending Potomac TRACON
06:38AM 39.9000 -77.1667 194° South 279 321 10,200 -1,080 Descending Potomac TRACON
06:38AM 39.8333 -77.1833 191° South 271 312 9,300 -720 Descending Potomac TRACON
06:39AM 39.7667 -77.2000 191° South 272 313 9,000 -480 Descending Potomac TRACON
06:40AM 39.7167 -77.2167 194° South 264 304 8,500 -720 Descending Potomac TRACON
06:41AM 39.6667 -77.2833 226° Southwest 261 300 7,800 -720 Descending Potomac TRACON
06:42AM 39.6167 -77.3333 218° Southwest 250 288 7,100 -420 Descending Potomac TRACON
06:43AM 39.5333 -77.3500 189° South 267 307 7,000 -60 Descending Potomac TRACON
06:44AM 39.4833 -77.3500 180° South 258 297 7,000  Level Potomac TRACON
06:45AM 39.4000 -77.3667 189° South 253 291 7,000  Level Potomac TRACON
06:46AM 39.3333 -77.3667 180° South 260 299 7,000 -480 Level Potomac TRACON
06:47AM 39.2667 -77.3667 180° South 266 306 6,200 -960 Descending Potomac TRACON
06:48AM 39.2000 -77.3667 180° South 259 298 5,300 -1,020 Descending Potomac TRACON
06:49AM 39.1167 -77.3500 171° South 260 299 4,200 -660 Descending Potomac TRACON
06:50AM 39.0667 -77.3500 180° South 248 285 4,000 -420 Descending Potomac TRACON
06:51AM 39.0000 -77.3500 180° South 244 281 3,500 -540 Descending Potomac TRACON
06:52AM 38.9333 -77.3500 180° South 234 269 3,000 -300 Descending Potomac TRACON
06:53AM 38.8667 -77.3500 180° South 233 268 3,000 -300 Level Potomac TRACON
06:54AM 38.8000 -77.3667 191° South 240 276 2,400 -540 Descending Potomac TRACON
06:55AM 38.7667 -77.4167 229° Southwest 243 280 2,000 -240 Descending Potomac TRACON
06:56AM 38.8167 -77.4333 345° North 226 260 2,000 -300 Level Potomac TRACON
06:57AM 38.8667 -77.4333 360° North 167 192 1,500 -660 Descending Potomac TRACON
06:58AM 38.9000 -77.4333 360° North 140 161 700 -840 Descending Potomac TRACON
07:00AM 38.9333 -77.4500 349° North  Level FlightAware Approximate
07:07AM 38.9474 -77.4599 349° North  Level Estimated